sensor_id;sensor_type;location;lat;lon;timestamp;P1;durP1;ratioP1;P2;durP2;ratioP2
70045;SDS011;57385;41.832;23.494;2023-01-08T00:00:54;151.93;;;72.72;;
70045;SDS011;57385;41.832;23.494;2023-01-08T00:02:17;161.57;;;74.47;;
70045;SDS011;57385;41.832;23.494;2023-01-08T00:03:39;154.10;;;75.15;;
70045;SDS011;57385;41.832;23.494;2023-01-08T00:05:02;162.80;;;75.35;;
70045;SDS011;57385;41.832;23.494;2023-01-08T00:06:24;157.00;;;75.30;;
70045;SDS011;57385;41.832;23.494;2023-01-08T00:07:45;172.32;;;77.70;;
70045;SDS011;57385;41.832;23.494;2023-01-08T00:09:08;166.88;;;76.88;;
70045;SDS011;57385;41.832;23.494;2023-01-08T00:10:30;154.85;;;73.20;;
70045;SDS011;57385;41.832;23.494;2023-01-08T00:11:52;152.23;;;71.82;;
70045;SDS011;57385;41.832;23.494;2023-01-08T00:13:14;161.15;;;73.88;;
70045;SDS011;57385;41.832;23.494;2023-01-08T00:14:36;146.50;;;74.78;;
70045;SDS011;57385;41.832;23.494;2023-01-08T00:16:01;158.98;;;76.88;;
70045;SDS011;57385;41.832;23.494;2023-01-08T00:17:27;161.20;;;74.78;;
70045;SDS011;57385;41.832;23.494;2023-01-08T00:18:49;166.13;;;80.68;;
70045;SDS011;57385;41.832;23.494;2023-01-08T00:20:11;160.85;;;78.80;;
70045;SDS011;57385;41.832;23.494;2023-01-08T00:21:33;168.05;;;81.82;;
70045;SDS011;57385;41.832;23.494;2023-01-08T00:22:55;188.75;;;85.75;;
70045;SDS011;57385;41.832;23.494;2023-01-08T00:24:17;168.00;;;79.25;;
70045;SDS011;57385;41.832;23.494;2023-01-08T00:25:40;170.00;;;78.75;;
70045;SDS011;57385;41.832;23.494;2023-01-08T00:27:02;167.38;;;77.57;;
70045;SDS011;57385;41.832;23.494;2023-01-08T00:28:24;169.55;;;81.18;;
70045;SDS011;57385;41.832;23.494;2023-01-08T00:29:46;176.77;;;81.18;;
70045;SDS011;57385;41.832;23.494;2023-01-08T00:31:09;165.38;;;77.05;;
70045;SDS011;57385;41.832;23.494;2023-01-08T00:32:32;170.20;;;76.32;;
70045;SDS011;57385;41.832;23.494;2023-01-08T00:33:54;150.55;;;71.57;;
70045;SDS011;57385;41.832;23.494;2023-01-08T00:35:16;156.18;;;68.30;;
70045;SDS011;57385;41.832;23.494;2023-01-08T00:36:38;132.63;;;61.20;;
70045;SDS011;57385;41.832;23.494;2023-01-08T00:37:59;117.38;;;56.75;;
70045;SDS011;57385;41.832;23.494;2023-01-08T00:39:21;116.78;;;53.17;;
70045;SDS011;57385;41.832;23.494;2023-01-08T00:41:02;108.13;;;50.47;;
70045;SDS011;57385;41.832;23.494;2023-01-08T00:42:24;112.07;;;49.83;;
70045;SDS011;57385;41.832;23.494;2023-01-08T00:43:46;108.25;;;49.47;;
70045;SDS011;57385;41.832;23.494;2023-01-08T00:45:08;104.97;;;50.55;;
70045;SDS011;57385;41.832;23.494;2023-01-08T00:46:30;98.65;;;46.92;;
70045;SDS011;57385;41.832;23.494;2023-01-08T00:47:52;104.90;;;48.42;;
70045;SDS011;57385;41.832;23.494;2023-01-08T00:49:14;106.07;;;47.15;;
70045;SDS011;57385;41.832;23.494;2023-01-08T00:50:36;81.72;;;39.65;;
70045;SDS011;57385;41.832;23.494;2023-01-08T00:51:58;87.82;;;38.33;;
70045;SDS011;57385;41.832;23.494;2023-01-08T00:53:20;84.80;;;38.13;;
70045;SDS011;57385;41.832;23.494;2023-01-08T00:54:44;74.18;;;37.47;;
70045;SDS011;57385;41.832;23.494;2023-01-08T00:56:07;79.25;;;38.90;;
70045;SDS011;57385;41.832;23.494;2023-01-08T00:57:34;76.68;;;37.13;;
70045;SDS011;57385;41.832;23.494;2023-01-08T00:58:57;72.47;;;34.90;;
70045;SDS011;57385;41.832;23.494;2023-01-08T01:00:19;67.90;;;33.28;;
70045;SDS011;57385;41.832;23.494;2023-01-08T01:01:40;63.15;;;31.38;;
70045;SDS011;57385;41.832;23.494;2023-01-08T01:03:02;67.57;;;32.63;;
70045;SDS011;57385;41.832;23.494;2023-01-08T01:04:25;59.28;;;30.13;;
70045;SDS011;57385;41.832;23.494;2023-01-08T01:05:47;58.80;;;28.83;;
70045;SDS011;57385;41.832;23.494;2023-01-08T01:07:09;53.33;;;26.92;;
70045;SDS011;57385;41.832;23.494;2023-01-08T01:08:32;48.45;;;22.35;;
70045;SDS011;57385;41.832;23.494;2023-01-08T01:09:54;49.15;;;21.98;;
70045;SDS011;57385;41.832;23.494;2023-01-08T01:11:21;40.30;;;21.00;;
70045;SDS011;57385;41.832;23.494;2023-01-08T01:12:44;49.33;;;22.00;;
70045;SDS011;57385;41.832;23.494;2023-01-08T01:14:06;49.45;;;23.70;;
70045;SDS011;57385;41.832;23.494;2023-01-08T01:15:29;53.53;;;23.90;;
70045;SDS011;57385;41.832;23.494;2023-01-08T01:16:51;52.78;;;23.38;;
70045;SDS011;57385;41.832;23.494;2023-01-08T01:18:13;47.90;;;21.50;;
70045;SDS011;57385;41.832;23.494;2023-01-08T01:19:35;40.63;;;19.48;;
70045;SDS011;57385;41.832;23.494;2023-01-08T01:20:56;38.78;;;18.25;;
70045;SDS011;57385;41.832;23.494;2023-01-08T01:22:18;41.75;;;17.45;;
70045;SDS011;57385;41.832;23.494;2023-01-08T01:23:40;34.85;;;16.55;;
70045;SDS011;57385;41.832;23.494;2023-01-08T01:25:02;31.30;;;14.77;;
70045;SDS011;57385;41.832;23.494;2023-01-08T01:26:25;29.25;;;15.43;;
70045;SDS011;57385;41.832;23.494;2023-01-08T01:27:47;30.83;;;15.05;;
70045;SDS011;57385;41.832;23.494;2023-01-08T01:29:09;28.13;;;14.23;;
70045;SDS011;57385;41.832;23.494;2023-01-08T01:30:31;24.65;;;14.60;;
70045;SDS011;57385;41.832;23.494;2023-01-08T01:31:53;28.08;;;14.75;;
70045;SDS011;57385;41.832;23.494;2023-01-08T01:33:15;23.67;;;13.20;;
70045;SDS011;57385;41.832;23.494;2023-01-08T01:34:37;25.40;;;14.77;;
70045;SDS011;57385;41.832;23.494;2023-01-08T01:35:59;38.95;;;18.52;;
70045;SDS011;57385;41.832;23.494;2023-01-08T01:37:22;38.20;;;19.23;;
70045;SDS011;57385;41.832;23.494;2023-01-08T01:38:44;41.67;;;20.77;;
70045;SDS011;57385;41.832;23.494;2023-01-08T01:40:07;41.95;;;21.27;;
70045;SDS011;57385;41.832;23.494;2023-01-08T01:41:36;39.50;;;21.23;;
70045;SDS011;57385;41.832;23.494;2023-01-08T01:43:00;45.30;;;24.08;;
70045;SDS011;57385;41.832;23.494;2023-01-08T01:46:01;46.47;;;24.98;;
70045;SDS011;57385;41.832;23.494;2023-01-08T01:47:33;52.35;;;25.95;;
70045;SDS011;57385;41.832;23.494;2023-01-08T01:48:58;53.85;;;27.45;;
70045;SDS011;57385;41.832;23.494;2023-01-08T01:50:27;53.28;;;26.38;;
70045;SDS011;57385;41.832;23.494;2023-01-08T01:51:51;47.78;;;26.58;;
70045;SDS011;57385;41.832;23.494;2023-01-08T01:53:21;51.85;;;28.75;;
70045;SDS011;57385;41.832;23.494;2023-01-08T01:54:48;56.67;;;27.35;;
70045;SDS011;57385;41.832;23.494;2023-01-08T01:56:11;49.83;;;25.77;;
70045;SDS011;57385;41.832;23.494;2023-01-08T01:57:33;57.47;;;27.77;;
70045;SDS011;57385;41.832;23.494;2023-01-08T01:58:56;56.42;;;29.25;;
70045;SDS011;57385;41.832;23.494;2023-01-08T02:00:18;56.90;;;28.08;;
70045;SDS011;57385;41.832;23.494;2023-01-08T02:01:40;73.28;;;30.52;;
70045;SDS011;57385;41.832;23.494;2023-01-08T02:03:03;68.70;;;31.98;;
70045;SDS011;57385;41.832;23.494;2023-01-08T02:04:28;68.60;;;31.00;;
70045;SDS011;57385;41.832;23.494;2023-01-08T02:07:23;61.88;;;28.88;;
70045;SDS011;57385;41.832;23.494;2023-01-08T02:09:16;56.45;;;27.95;;
70045;SDS011;57385;41.832;23.494;2023-01-08T02:10:54;60.92;;;28.63;;
70045;SDS011;57385;41.832;23.494;2023-01-08T02:12:32;56.42;;;29.75;;
70045;SDS011;57385;41.832;23.494;2023-01-08T02:14:03;52.53;;;26.92;;
70045;SDS011;57385;41.832;23.494;2023-01-08T02:15:47;53.58;;;27.23;;
70045;SDS011;57385;41.832;23.494;2023-01-08T02:17:33;54.28;;;26.52;;
70045;SDS011;57385;41.832;23.494;2023-01-08T02:18:56;58.55;;;28.15;;
70045;SDS011;57385;41.832;23.494;2023-01-08T02:20:36;51.20;;;26.90;;
70045;SDS011;57385;41.832;23.494;2023-01-08T02:26:52;58.67;;;27.65;;
70045;SDS011;57385;41.832;23.494;2023-01-08T02:28:17;54.42;;;27.85;;
70045;SDS011;57385;41.832;23.494;2023-01-08T02:29:40;53.53;;;27.40;;
70045;SDS011;57385;41.832;23.494;2023-01-08T02:31:02;52.97;;;26.60;;
70045;SDS011;57385;41.832;23.494;2023-01-08T02:32:26;48.60;;;25.23;;
70045;SDS011;57385;41.832;23.494;2023-01-08T02:33:52;48.47;;;26.23;;
70045;SDS011;57385;41.832;23.494;2023-01-08T02:35:14;44.97;;;24.00;;
70045;SDS011;57385;41.832;23.494;2023-01-08T02:36:37;47.05;;;25.88;;
70045;SDS011;57385;41.832;23.494;2023-01-08T02:37:59;44.72;;;23.77;;
70045;SDS011;57385;41.832;23.494;2023-01-08T02:40:59;36.15;;;19.75;;
70045;SDS011;57385;41.832;23.494;2023-01-08T02:42:35;36.40;;;18.17;;
70045;SDS011;57385;41.832;23.494;2023-01-08T02:44:28;31.35;;;17.05;;
70045;SDS011;57385;41.832;23.494;2023-01-08T02:46:13;30.63;;;16.10;;
70045;SDS011;57385;41.832;23.494;2023-01-08T02:47:59;27.45;;;15.35;;
70045;SDS011;57385;41.832;23.494;2023-01-08T02:49:35;29.35;;;16.58;;
70045;SDS011;57385;41.832;23.494;2023-01-08T02:52:24;34.47;;;18.65;;
70045;SDS011;57385;41.832;23.494;2023-01-08T02:53:50;35.22;;;18.67;;
70045;SDS011;57385;41.832;23.494;2023-01-08T02:55:15;33.45;;;18.23;;
70045;SDS011;57385;41.832;23.494;2023-01-08T02:56:41;29.85;;;16.92;;
70045;SDS011;57385;41.832;23.494;2023-01-08T02:58:06;40.97;;;20.45;;
70045;SDS011;57385;41.832;23.494;2023-01-08T02:59:28;46.15;;;20.83;;
70045;SDS011;57385;41.832;23.494;2023-01-08T03:00:53;38.70;;;21.05;;
70045;SDS011;57385;41.832;23.494;2023-01-08T03:02:16;43.72;;;21.92;;
70045;SDS011;57385;41.832;23.494;2023-01-08T03:03:39;40.17;;;20.10;;
70045;SDS011;57385;41.832;23.494;2023-01-08T03:05:12;41.75;;;20.55;;
70045;SDS011;57385;41.832;23.494;2023-01-08T03:06:44;31.75;;;17.70;;
70045;SDS011;57385;41.832;23.494;2023-01-08T03:08:08;32.40;;;17.75;;
70045;SDS011;57385;41.832;23.494;2023-01-08T03:09:31;34.67;;;17.38;;
70045;SDS011;57385;41.832;23.494;2023-01-08T03:10:59;37.20;;;18.90;;
70045;SDS011;57385;41.832;23.494;2023-01-08T03:12:38;42.85;;;22.85;;
70045;SDS011;57385;41.832;23.494;2023-01-08T03:14:19;54.22;;;25.48;;
70045;SDS011;57385;41.832;23.494;2023-01-08T03:15:52;47.40;;;23.02;;
70045;SDS011;57385;41.832;23.494;2023-01-08T03:17:19;42.60;;;21.88;;
70045;SDS011;57385;41.832;23.494;2023-01-08T03:19:01;34.97;;;17.77;;
70045;SDS011;57385;41.832;23.494;2023-01-08T03:20:41;33.15;;;19.40;;
70045;SDS011;57385;41.832;23.494;2023-01-08T03:22:06;33.78;;;18.98;;
70045;SDS011;57385;41.832;23.494;2023-01-08T03:23:32;24.02;;;14.65;;
70045;SDS011;57385;41.832;23.494;2023-01-08T03:24:56;26.83;;;13.70;;
70045;SDS011;57385;41.832;23.494;2023-01-08T03:26:21;22.63;;;13.18;;
70045;SDS011;57385;41.832;23.494;2023-01-08T03:27:50;16.65;;;11.15;;
70045;SDS011;57385;41.832;23.494;2023-01-08T03:29:22;19.15;;;11.52;;
70045;SDS011;57385;41.832;23.494;2023-01-08T03:30:46;18.88;;;11.25;;
70045;SDS011;57385;41.832;23.494;2023-01-08T03:32:10;20.02;;;11.73;;
70045;SDS011;57385;41.832;23.494;2023-01-08T03:33:35;17.25;;;10.20;;
70045;SDS011;57385;41.832;23.494;2023-01-08T03:34:58;18.25;;;10.38;;
70045;SDS011;57385;41.832;23.494;2023-01-08T03:36:24;18.40;;;10.85;;
70045;SDS011;57385;41.832;23.494;2023-01-08T03:37:51;17.20;;;10.18;;
70045;SDS011;57385;41.832;23.494;2023-01-08T03:39:27;22.35;;;12.88;;
70045;SDS011;57385;41.832;23.494;2023-01-08T03:40:56;36.55;;;19.55;;
70045;SDS011;57385;41.832;23.494;2023-01-08T03:42:24;37.42;;;18.15;;
70045;SDS011;57385;41.832;23.494;2023-01-08T03:43:48;31.13;;;18.25;;
70045;SDS011;57385;41.832;23.494;2023-01-08T03:45:10;31.73;;;18.35;;
70045;SDS011;57385;41.832;23.494;2023-01-08T03:46:33;36.67;;;18.17;;
70045;SDS011;57385;41.832;23.494;2023-01-08T03:47:59;29.42;;;17.02;;
70045;SDS011;57385;41.832;23.494;2023-01-08T03:49:25;37.03;;;20.58;;
70045;SDS011;57385;41.832;23.494;2023-01-08T03:50:49;40.28;;;22.75;;
70045;SDS011;57385;41.832;23.494;2023-01-08T03:52:24;39.30;;;22.25;;
70045;SDS011;57385;41.832;23.494;2023-01-08T03:53:49;41.95;;;22.50;;
70045;SDS011;57385;41.832;23.494;2023-01-08T03:55:15;47.70;;;23.00;;
70045;SDS011;57385;41.832;23.494;2023-01-08T03:56:37;46.92;;;23.55;;
70045;SDS011;57385;41.832;23.494;2023-01-08T03:57:59;42.63;;;24.27;;
70045;SDS011;57385;41.832;23.494;2023-01-08T03:59:21;48.55;;;27.75;;
70045;SDS011;57385;41.832;23.494;2023-01-08T04:00:43;43.40;;;26.23;;
70045;SDS011;57385;41.832;23.494;2023-01-08T04:02:05;43.53;;;24.83;;
70045;SDS011;57385;41.832;23.494;2023-01-08T04:03:27;46.03;;;25.27;;
70045;SDS011;57385;41.832;23.494;2023-01-08T04:04:49;42.40;;;25.90;;
70045;SDS011;57385;41.832;23.494;2023-01-08T04:06:10;44.30;;;24.73;;
70045;SDS011;57385;41.832;23.494;2023-01-08T04:07:32;47.03;;;25.92;;
70045;SDS011;57385;41.832;23.494;2023-01-08T04:08:54;44.95;;;26.02;;
70045;SDS011;57385;41.832;23.494;2023-01-08T04:10:16;45.63;;;25.60;;
70045;SDS011;57385;41.832;23.494;2023-01-08T04:11:38;46.53;;;26.17;;
70045;SDS011;57385;41.832;23.494;2023-01-08T04:13:00;51.88;;;29.40;;
70045;SDS011;57385;41.832;23.494;2023-01-08T04:14:22;55.80;;;31.55;;
70045;SDS011;57385;41.832;23.494;2023-01-08T04:15:50;51.90;;;32.88;;
70045;SDS011;57385;41.832;23.494;2023-01-08T04:17:12;65.45;;;34.60;;
70045;SDS011;57385;41.832;23.494;2023-01-08T04:18:34;65.03;;;36.28;;
70045;SDS011;57385;41.832;23.494;2023-01-08T04:19:56;71.15;;;39.38;;
70045;SDS011;57385;41.832;23.494;2023-01-08T04:21:18;87.57;;;47.45;;
70045;SDS011;57385;41.832;23.494;2023-01-08T04:22:39;103.35;;;53.97;;
70045;SDS011;57385;41.832;23.494;2023-01-08T04:24:01;124.13;;;62.55;;
70045;SDS011;57385;41.832;23.494;2023-01-08T04:25:24;150.27;;;73.43;;
70045;SDS011;57385;41.832;23.494;2023-01-08T04:26:46;189.13;;;88.13;;
70045;SDS011;57385;41.832;23.494;2023-01-08T04:28:08;195.85;;;92.45;;
70045;SDS011;57385;41.832;23.494;2023-01-08T04:29:30;205.77;;;97.75;;
70045;SDS011;57385;41.832;23.494;2023-01-08T04:30:52;192.23;;;89.10;;
70045;SDS011;57385;41.832;23.494;2023-01-08T04:32:14;162.15;;;72.93;;
70045;SDS011;57385;41.832;23.494;2023-01-08T04:33:36;144.75;;;64.05;;
70045;SDS011;57385;41.832;23.494;2023-01-08T04:34:58;144.00;;;62.38;;
70045;SDS011;57385;41.832;23.494;2023-01-08T04:36:20;123.00;;;54.90;;
70045;SDS011;57385;41.832;23.494;2023-01-08T04:37:42;113.35;;;51.38;;
70045;SDS011;57385;41.832;23.494;2023-01-08T04:39:04;106.25;;;47.63;;
70045;SDS011;57385;41.832;23.494;2023-01-08T04:40:26;101.10;;;45.55;;
70045;SDS011;57385;41.832;23.494;2023-01-08T04:41:48;100.40;;;46.28;;
70045;SDS011;57385;41.832;23.494;2023-01-08T04:43:10;96.82;;;45.15;;
70045;SDS011;57385;41.832;23.494;2023-01-08T04:44:32;93.63;;;43.88;;
70045;SDS011;57385;41.832;23.494;2023-01-08T04:45:58;87.43;;;43.33;;
70045;SDS011;57385;41.832;23.494;2023-01-08T04:47:21;96.45;;;47.40;;
70045;SDS011;57385;41.832;23.494;2023-01-08T04:48:43;106.90;;;49.88;;
70045;SDS011;57385;41.832;23.494;2023-01-08T04:50:05;95.40;;;46.20;;
70045;SDS011;57385;41.832;23.494;2023-01-08T04:51:27;88.90;;;43.30;;
70045;SDS011;57385;41.832;23.494;2023-01-08T04:52:49;92.15;;;47.17;;
70045;SDS011;57385;41.832;23.494;2023-01-08T04:54:11;95.90;;;44.55;;
70045;SDS011;57385;41.832;23.494;2023-01-08T04:55:33;84.03;;;42.70;;
70045;SDS011;57385;41.832;23.494;2023-01-08T04:56:54;86.65;;;41.40;;
70045;SDS011;57385;41.832;23.494;2023-01-08T04:58:16;78.82;;;39.35;;
70045;SDS011;57385;41.832;23.494;2023-01-08T04:59:38;85.43;;;42.10;;
70045;SDS011;57385;41.832;23.494;2023-01-08T05:00:59;73.90;;;38.60;;
70045;SDS011;57385;41.832;23.494;2023-01-08T05:02:29;83.03;;;41.40;;
70045;SDS011;57385;41.832;23.494;2023-01-08T05:04:01;74.70;;;37.95;;
70045;SDS011;57385;41.832;23.494;2023-01-08T05:05:24;74.25;;;38.03;;
70045;SDS011;57385;41.832;23.494;2023-01-08T05:06:45;69.00;;;37.90;;
70045;SDS011;57385;41.832;23.494;2023-01-08T05:08:07;64.70;;;35.97;;
70045;SDS011;57385;41.832;23.494;2023-01-08T05:09:29;75.38;;;39.28;;
70045;SDS011;57385;41.832;23.494;2023-01-08T05:10:51;80.20;;;39.67;;
70045;SDS011;57385;41.832;23.494;2023-01-08T05:12:13;81.10;;;42.95;;
70045;SDS011;57385;41.832;23.494;2023-01-08T05:13:35;92.03;;;47.85;;
70045;SDS011;57385;41.832;23.494;2023-01-08T05:14:57;90.68;;;47.60;;
70045;SDS011;57385;41.832;23.494;2023-01-08T05:16:19;92.32;;;47.90;;
70045;SDS011;57385;41.832;23.494;2023-01-08T05:17:42;99.15;;;49.90;;
70045;SDS011;57385;41.832;23.494;2023-01-08T05:19:04;94.43;;;48.70;;
70045;SDS011;57385;41.832;23.494;2023-01-08T05:20:26;92.70;;;47.13;;
70045;SDS011;57385;41.832;23.494;2023-01-08T05:21:48;97.80;;;51.35;;
70045;SDS011;57385;41.832;23.494;2023-01-08T05:23:10;104.00;;;55.00;;
70045;SDS011;57385;41.832;23.494;2023-01-08T05:24:32;105.45;;;55.88;;
70045;SDS011;57385;41.832;23.494;2023-01-08T05:25:57;108.90;;;55.95;;
70045;SDS011;57385;41.832;23.494;2023-01-08T05:27:23;112.00;;;57.72;;
70045;SDS011;57385;41.832;23.494;2023-01-08T05:28:45;111.10;;;58.53;;
70045;SDS011;57385;41.832;23.494;2023-01-08T05:30:07;114.97;;;59.47;;
70045;SDS011;57385;41.832;23.494;2023-01-08T05:31:29;122.90;;;65.13;;
70045;SDS011;57385;41.832;23.494;2023-01-08T05:32:51;139.15;;;69.07;;
70045;SDS011;57385;41.832;23.494;2023-01-08T05:34:13;122.88;;;68.00;;
70045;SDS011;57385;41.832;23.494;2023-01-08T05:35:37;122.40;;;67.20;;
70045;SDS011;57385;41.832;23.494;2023-01-08T05:36:59;125.10;;;67.45;;
70045;SDS011;57385;41.832;23.494;2023-01-08T05:38:21;123.13;;;69.40;;
70045;SDS011;57385;41.832;23.494;2023-01-08T05:39:43;129.20;;;69.10;;
70045;SDS011;57385;41.832;23.494;2023-01-08T05:41:05;138.02;;;71.38;;
70045;SDS011;57385;41.832;23.494;2023-01-08T05:42:27;133.52;;;71.07;;
70045;SDS011;57385;41.832;23.494;2023-01-08T05:43:49;137.32;;;71.60;;
70045;SDS011;57385;41.832;23.494;2023-01-08T05:45:11;132.55;;;72.10;;
70045;SDS011;57385;41.832;23.494;2023-01-08T05:46:33;141.38;;;75.22;;
70045;SDS011;57385;41.832;23.494;2023-01-08T05:47:54;138.10;;;74.82;;
70045;SDS011;57385;41.832;23.494;2023-01-08T05:49:16;128.43;;;69.25;;
70045;SDS011;57385;41.832;23.494;2023-01-08T05:50:39;133.45;;;71.38;;
70045;SDS011;57385;41.832;23.494;2023-01-08T05:52:01;120.72;;;68.90;;
70045;SDS011;57385;41.832;23.494;2023-01-08T05:53:23;121.40;;;65.32;;
70045;SDS011;57385;41.832;23.494;2023-01-08T05:54:44;130.48;;;67.35;;
70045;SDS011;57385;41.832;23.494;2023-01-08T05:56:07;122.93;;;65.53;;
70045;SDS011;57385;41.832;23.494;2023-01-08T05:57:31;110.38;;;62.38;;
70045;SDS011;57385;41.832;23.494;2023-01-08T05:58:53;109.30;;;59.90;;
70045;SDS011;57385;41.832;23.494;2023-01-08T06:00:15;108.97;;;60.42;;
70045;SDS011;57385;41.832;23.494;2023-01-08T06:01:37;119.45;;;64.25;;
70045;SDS011;57385;41.832;23.494;2023-01-08T06:02:59;134.32;;;70.30;;
70045;SDS011;57385;41.832;23.494;2023-01-08T06:04:21;125.13;;;67.82;;
70045;SDS011;57385;41.832;23.494;2023-01-08T06:05:44;136.77;;;74.88;;
70045;SDS011;57385;41.832;23.494;2023-01-08T06:07:05;132.68;;;72.78;;
70045;SDS011;57385;41.832;23.494;2023-01-08T06:08:28;149.48;;;84.65;;
70045;SDS011;57385;41.832;23.494;2023-01-08T06:09:50;151.55;;;85.72;;
70045;SDS011;57385;41.832;23.494;2023-01-08T06:11:12;155.05;;;87.07;;
70045;SDS011;57385;41.832;23.494;2023-01-08T06:12:34;145.95;;;83.50;;
70045;SDS011;57385;41.832;23.494;2023-01-08T06:13:56;150.25;;;88.50;;
70045;SDS011;57385;41.832;23.494;2023-01-08T06:15:18;147.88;;;86.72;;
70045;SDS011;57385;41.832;23.494;2023-01-08T06:16:41;163.38;;;88.32;;
70045;SDS011;57385;41.832;23.494;2023-01-08T06:18:03;162.15;;;89.78;;
70045;SDS011;57385;41.832;23.494;2023-01-08T06:19:25;151.88;;;86.03;;
70045;SDS011;57385;41.832;23.494;2023-01-08T06:20:47;159.80;;;91.28;;
70045;SDS011;57385;41.832;23.494;2023-01-08T06:22:09;166.73;;;92.93;;
70045;SDS011;57385;41.832;23.494;2023-01-08T06:23:31;173.60;;;93.53;;
70045;SDS011;57385;41.832;23.494;2023-01-08T06:24:53;168.82;;;95.03;;
70045;SDS011;57385;41.832;23.494;2023-01-08T06:26:15;167.57;;;95.28;;
70045;SDS011;57385;41.832;23.494;2023-01-08T06:27:37;167.70;;;97.03;;
70045;SDS011;57385;41.832;23.494;2023-01-08T06:29:00;181.52;;;101.30;;
70045;SDS011;57385;41.832;23.494;2023-01-08T06:30:23;178.10;;;103.38;;
70045;SDS011;57385;41.832;23.494;2023-01-08T06:31:44;180.40;;;104.85;;
70045;SDS011;57385;41.832;23.494;2023-01-08T06:33:06;185.75;;;108.78;;
70045;SDS011;57385;41.832;23.494;2023-01-08T06:34:28;181.70;;;105.43;;
70045;SDS011;57385;41.832;23.494;2023-01-08T06:35:50;186.57;;;106.53;;
70045;SDS011;57385;41.832;23.494;2023-01-08T06:37:12;190.93;;;111.80;;
70045;SDS011;57385;41.832;23.494;2023-01-08T06:38:34;199.02;;;115.38;;
70045;SDS011;57385;41.832;23.494;2023-01-08T06:39:58;191.93;;;112.47;;
70045;SDS011;57385;41.832;23.494;2023-01-08T06:41:20;198.60;;;117.38;;
70045;SDS011;57385;41.832;23.494;2023-01-08T06:42:42;199.75;;;121.93;;
70045;SDS011;57385;41.832;23.494;2023-01-08T06:44:05;196.98;;;119.15;;
70045;SDS011;57385;41.832;23.494;2023-01-08T06:45:27;204.90;;;123.90;;
70045;SDS011;57385;41.832;23.494;2023-01-08T06:46:49;204.10;;;121.28;;
70045;SDS011;57385;41.832;23.494;2023-01-08T06:48:11;214.63;;;125.20;;
70045;SDS011;57385;41.832;23.494;2023-01-08T06:49:33;215.00;;;125.25;;
70045;SDS011;57385;41.832;23.494;2023-01-08T06:50:57;229.00;;;129.75;;
70045;SDS011;57385;41.832;23.494;2023-01-08T06:52:20;232.48;;;130.77;;
70045;SDS011;57385;41.832;23.494;2023-01-08T06:53:42;248.75;;;136.80;;
70045;SDS011;57385;41.832;23.494;2023-01-08T06:55:07;270.70;;;144.73;;
70045;SDS011;57385;41.832;23.494;2023-01-08T06:56:29;258.00;;;143.50;;
70045;SDS011;57385;41.832;23.494;2023-01-08T06:57:53;281.23;;;153.10;;
70045;SDS011;57385;41.832;23.494;2023-01-08T06:59:15;264.23;;;147.23;;
70045;SDS011;57385;41.832;23.494;2023-01-08T07:00:38;272.20;;;152.00;;
70045;SDS011;57385;41.832;23.494;2023-01-08T07:02:00;290.10;;;160.30;;
70045;SDS011;57385;41.832;23.494;2023-01-08T07:03:22;293.00;;;162.55;;
70045;SDS011;57385;41.832;23.494;2023-01-08T07:04:44;316.63;;;175.02;;
70045;SDS011;57385;41.832;23.494;2023-01-08T07:06:06;349.60;;;188.98;;
70045;SDS011;57385;41.832;23.494;2023-01-08T07:07:39;320.73;;;181.73;;
70045;SDS011;57385;41.832;23.494;2023-01-08T07:09:01;299.73;;;162.02;;
70045;SDS011;57385;41.832;23.494;2023-01-08T07:10:23;287.15;;;159.98;;
70045;SDS011;57385;41.832;23.494;2023-01-08T07:11:46;279.42;;;159.25;;
70045;SDS011;57385;41.832;23.494;2023-01-08T07:13:07;261.73;;;148.68;;
70045;SDS011;57385;41.832;23.494;2023-01-08T07:14:29;239.38;;;135.95;;
70045;SDS011;57385;41.832;23.494;2023-01-08T07:15:53;229.65;;;135.15;;
70045;SDS011;57385;41.832;23.494;2023-01-08T07:17:15;214.20;;;125.70;;
70045;SDS011;57385;41.832;23.494;2023-01-08T07:18:37;223.25;;;129.65;;
70045;SDS011;57385;41.832;23.494;2023-01-08T07:20:00;233.77;;;138.57;;
70045;SDS011;57385;41.832;23.494;2023-01-08T07:21:22;214.18;;;127.55;;
70045;SDS011;57385;41.832;23.494;2023-01-08T07:22:44;223.93;;;126.03;;
70045;SDS011;57385;41.832;23.494;2023-01-08T07:24:06;182.98;;;116.10;;
70045;SDS011;57385;41.832;23.494;2023-01-08T07:25:28;163.50;;;101.22;;
70045;SDS011;57385;41.832;23.494;2023-01-08T07:26:50;158.68;;;97.38;;
70045;SDS011;57385;41.832;23.494;2023-01-08T07:28:12;148.93;;;90.03;;
70045;SDS011;57385;41.832;23.494;2023-01-08T07:29:34;140.35;;;88.75;;
70045;SDS011;57385;41.832;23.494;2023-01-08T07:30:56;144.77;;;88.95;;
70045;SDS011;57385;41.832;23.494;2023-01-08T07:32:21;202.40;;;126.28;;
70045;SDS011;57385;41.832;23.494;2023-01-08T07:33:43;188.60;;;118.90;;
70045;SDS011;57385;41.832;23.494;2023-01-08T07:35:05;199.65;;;128.77;;
70045;SDS011;57385;41.832;23.494;2023-01-08T07:36:27;207.45;;;127.60;;
70045;SDS011;57385;41.832;23.494;2023-01-08T07:37:49;193.10;;;119.10;;
70045;SDS011;57385;41.832;23.494;2023-01-08T07:39:11;183.23;;;118.38;;
70045;SDS011;57385;41.832;23.494;2023-01-08T07:40:33;186.82;;;118.30;;
70045;SDS011;57385;41.832;23.494;2023-01-08T07:41:56;197.32;;;121.68;;
70045;SDS011;57385;41.832;23.494;2023-01-08T07:43:18;172.27;;;103.57;;
70045;SDS011;57385;41.832;23.494;2023-01-08T07:44:40;157.63;;;100.93;;
70045;SDS011;57385;41.832;23.494;2023-01-08T07:46:02;153.80;;;99.40;;
70045;SDS011;57385;41.832;23.494;2023-01-08T07:47:24;160.65;;;98.78;;
70045;SDS011;57385;41.832;23.494;2023-01-08T07:48:46;127.65;;;83.53;;
70045;SDS011;57385;41.832;23.494;2023-01-08T07:50:09;107.78;;;68.25;;
70045;SDS011;57385;41.832;23.494;2023-01-08T07:51:31;85.95;;;59.92;;
70045;SDS011;57385;41.832;23.494;2023-01-08T07:53:00;107.53;;;73.45;;
70045;SDS011;57385;41.832;23.494;2023-01-08T07:54:23;103.35;;;69.28;;
70045;SDS011;57385;41.832;23.494;2023-01-08T07:55:45;100.10;;;66.70;;
70045;SDS011;57385;41.832;23.494;2023-01-08T07:57:07;89.65;;;58.92;;
70045;SDS011;57385;41.832;23.494;2023-01-08T07:58:29;92.68;;;62.30;;
70045;SDS011;57385;41.832;23.494;2023-01-08T07:59:51;106.18;;;65.97;;
70045;SDS011;57385;41.832;23.494;2023-01-08T08:01:13;271.45;;;155.70;;
70045;SDS011;57385;41.832;23.494;2023-01-08T08:02:36;624.67;;;374.52;;
70045;SDS011;57385;41.832;23.494;2023-01-08T08:03:58;739.80;;;467.23;;
70045;SDS011;57385;41.832;23.494;2023-01-08T08:05:19;519.13;;;313.90;;
70045;SDS011;57385;41.832;23.494;2023-01-08T08:06:41;315.90;;;190.73;;
70045;SDS011;57385;41.832;23.494;2023-01-08T08:08:07;218.00;;;140.23;;
70045;SDS011;57385;41.832;23.494;2023-01-08T08:09:30;160.38;;;108.80;;
70045;SDS011;57385;41.832;23.494;2023-01-08T08:10:52;97.95;;;69.32;;